createdAt,value
2016-06-13T05:44:04.117Z,8696
2016-06-13T05:45:03.620Z,9592
2016-06-13T05:46:03.858Z,10524
2016-06-13T05:47:04.736Z,11132
2016-06-13T05:48:03.942Z,11584
2016-06-13T05:49:15.617Z,11884
2016-06-13T05:50:14.089Z,12256
2016-06-13T05:51:03.529Z,11724
2016-06-13T05:52:04.157Z,12132
2016-06-13T05:53:04.879Z,12048
2016-06-13T05:54:04.180Z,13244
2016-06-13T05:55:20.230Z,11952
2016-06-13T05:56:05.466Z,12016
2016-06-13T05:57:05.501Z,11524
2016-06-13T05:58:04.192Z,10788
2016-06-13T05:59:07.382Z,9624
2016-06-13T06:00:04.041Z,9320
2016-06-13T06:01:04.184Z,8544
2016-06-13T06:02:04.438Z,8504
2016-06-13T06:03:03.894Z,8380
2016-06-13T06:04:23.975Z,8272
2016-06-13T06:05:07.556Z,8252
2016-06-13T06:06:04.092Z,8416
2016-06-13T06:07:06.000Z,8660
2016-06-13T06:08:04.425Z,8572
2016-06-13T06:09:04.334Z,8848
2016-06-13T06:10:12.885Z,8728
2016-06-13T06:11:03.841Z,9236
2016-06-13T06:12:04.796Z,10248
2016-06-13T06:13:04.144Z,12312
2016-06-13T06:14:03.866Z,12256
2016-06-13T06:15:03.931Z,12108
2016-06-13T06:16:13.137Z,13076
2016-06-13T06:17:03.968Z,12608
2016-06-13T06:18:04.112Z,12432
2016-06-13T06:19:04.428Z,11300
2016-06-13T06:20:04.040Z,10240
2016-06-13T06:21:04.137Z,10664
2016-06-13T06:22:05.015Z,12632
2016-06-13T06:23:10.519Z,14676
2016-06-13T06:24:04.600Z,15188
